sensor_id;sensor_type;location;lat;lon;timestamp;P1;durP1;ratioP1;P2;durP2;ratioP2
5285;SDS011;2665;53.112;7.358;2023-08-06T00:01:16;6.50;;;4.67;;
5285;SDS011;2665;53.112;7.358;2023-08-06T00:03:44;7.63;;;4.63;;
5285;SDS011;2665;53.112;7.358;2023-08-06T00:06:10;6.80;;;3.93;;
5285;SDS011;2665;53.112;7.358;2023-08-06T00:08:36;5.13;;;4.40;;
5285;SDS011;2665;53.112;7.358;2023-08-06T00:11:02;5.53;;;3.90;;
5285;SDS011;2665;53.112;7.358;2023-08-06T00:13:28;5.07;;;3.80;;
5285;SDS011;2665;53.112;7.358;2023-08-06T00:15:54;6.73;;;4.30;;
5285;SDS011;2665;53.112;7.358;2023-08-06T00:18:20;7.17;;;4.63;;
5285;SDS011;2665;53.112;7.358;2023-08-06T00:20:46;6.00;;;4.20;;
5285;SDS011;2665;53.112;7.358;2023-08-06T00:23:12;8.37;;;4.20;;
5285;SDS011;2665;53.112;7.358;2023-08-06T00:25:38;4.17;;;3.23;;
5285;SDS011;2665;53.112;7.358;2023-08-06T00:28:04;5.80;;;4.03;;
5285;SDS011;2665;53.112;7.358;2023-08-06T00:30:31;6.10;;;4.67;;
5285;SDS011;2665;53.112;7.358;2023-08-06T00:32:57;8.77;;;4.90;;
5285;SDS011;2665;53.112;7.358;2023-08-06T00:35:23;7.00;;;5.23;;
5285;SDS011;2665;53.112;7.358;2023-08-06T00:37:49;9.00;;;5.30;;
5285;SDS011;2665;53.112;7.358;2023-08-06T00:40:15;6.20;;;4.77;;
5285;SDS011;2665;53.112;7.358;2023-08-06T00:42:41;7.03;;;5.20;;
5285;SDS011;2665;53.112;7.358;2023-08-06T00:45:09;10.10;;;4.87;;
5285;SDS011;2665;53.112;7.358;2023-08-06T00:47:36;10.40;;;4.80;;
5285;SDS011;2665;53.112;7.358;2023-08-06T00:50:04;8.07;;;5.30;;
5285;SDS011;2665;53.112;7.358;2023-08-06T00:52:31;7.60;;;4.80;;
5285;SDS011;2665;53.112;7.358;2023-08-06T00:54:57;7.17;;;5.60;;
5285;SDS011;2665;53.112;7.358;2023-08-06T00:57:24;8.77;;;5.40;;
5285;SDS011;2665;53.112;7.358;2023-08-06T00:59:51;5.97;;;4.50;;
5285;SDS011;2665;53.112;7.358;2023-08-06T01:02:17;6.93;;;5.27;;
5285;SDS011;2665;53.112;7.358;2023-08-06T01:04:43;6.83;;;4.60;;
5285;SDS011;2665;53.112;7.358;2023-08-06T01:07:16;6.20;;;4.83;;
5285;SDS011;2665;53.112;7.358;2023-08-06T01:09:50;6.73;;;4.50;;
5285;SDS011;2665;53.112;7.358;2023-08-06T01:14:54;11.73;;;5.10;;
5285;SDS011;2665;53.112;7.358;2023-08-06T01:17:23;10.33;;;4.83;;
5285;SDS011;2665;53.112;7.358;2023-08-06T01:19:51;6.63;;;4.63;;
5285;SDS011;2665;53.112;7.358;2023-08-06T01:22:17;7.00;;;4.47;;
5285;SDS011;2665;53.112;7.358;2023-08-06T01:24:45;7.13;;;5.13;;
5285;SDS011;2665;53.112;7.358;2023-08-06T01:27:17;7.03;;;4.40;;
5285;SDS011;2665;53.112;7.358;2023-08-06T01:29:45;6.57;;;4.83;;
5285;SDS011;2665;53.112;7.358;2023-08-06T01:32:13;7.37;;;4.77;;
5285;SDS011;2665;53.112;7.358;2023-08-06T01:34:40;6.00;;;5.20;;
5285;SDS011;2665;53.112;7.358;2023-08-06T01:37:07;6.37;;;4.83;;
5285;SDS011;2665;53.112;7.358;2023-08-06T01:39:33;7.10;;;4.67;;
5285;SDS011;2665;53.112;7.358;2023-08-06T01:41:59;7.47;;;5.17;;
5285;SDS011;2665;53.112;7.358;2023-08-06T01:44:25;5.97;;;4.17;;
5285;SDS011;2665;53.112;7.358;2023-08-06T01:46:52;12.37;;;6.77;;
5285;SDS011;2665;53.112;7.358;2023-08-06T01:49:18;9.00;;;7.60;;
5285;SDS011;2665;53.112;7.358;2023-08-06T01:51:44;8.63;;;6.00;;
5285;SDS011;2665;53.112;7.358;2023-08-06T01:54:10;7.93;;;5.73;;
5285;SDS011;2665;53.112;7.358;2023-08-06T01:56:36;6.90;;;4.80;;
5285;SDS011;2665;53.112;7.358;2023-08-06T01:59:02;5.00;;;4.20;;
5285;SDS011;2665;53.112;7.358;2023-08-06T02:01:28;6.60;;;4.80;;
5285;SDS011;2665;53.112;7.358;2023-08-06T02:03:54;6.27;;;4.60;;
5285;SDS011;2665;53.112;7.358;2023-08-06T02:06:20;7.57;;;5.30;;
5285;SDS011;2665;53.112;7.358;2023-08-06T02:08:46;6.63;;;4.90;;
5285;SDS011;2665;53.112;7.358;2023-08-06T02:11:12;8.63;;;5.87;;
5285;SDS011;2665;53.112;7.358;2023-08-06T02:13:38;11.03;;;5.03;;
5285;SDS011;2665;53.112;7.358;2023-08-06T02:16:06;6.27;;;4.20;;
5285;SDS011;2665;53.112;7.358;2023-08-06T02:18:33;5.83;;;4.20;;
5285;SDS011;2665;53.112;7.358;2023-08-06T02:20:59;4.70;;;3.83;;
5285;SDS011;2665;53.112;7.358;2023-08-06T02:23:26;8.77;;;4.63;;
5285;SDS011;2665;53.112;7.358;2023-08-06T02:26:02;4.80;;;3.70;;
5285;SDS011;2665;53.112;7.358;2023-08-06T02:28:29;6.70;;;4.67;;
5285;SDS011;2665;53.112;7.358;2023-08-06T02:30:55;6.47;;;5.03;;
5285;SDS011;2665;53.112;7.358;2023-08-06T02:33:21;6.10;;;4.27;;
5285;SDS011;2665;53.112;7.358;2023-08-06T02:35:47;6.27;;;4.57;;
5285;SDS011;2665;53.112;7.358;2023-08-06T02:38:13;5.50;;;3.43;;
5285;SDS011;2665;53.112;7.358;2023-08-06T02:40:45;6.00;;;4.73;;
5285;SDS011;2665;53.112;7.358;2023-08-06T02:43:12;5.47;;;3.90;;
5285;SDS011;2665;53.112;7.358;2023-08-06T02:45:38;5.13;;;4.10;;
5285;SDS011;2665;53.112;7.358;2023-08-06T02:48:04;7.77;;;4.70;;
5285;SDS011;2665;53.112;7.358;2023-08-06T02:50:31;8.00;;;5.40;;
5285;SDS011;2665;53.112;7.358;2023-08-06T02:52:57;5.67;;;3.80;;
5285;SDS011;2665;53.112;7.358;2023-08-06T02:55:23;6.63;;;4.70;;
5285;SDS011;2665;53.112;7.358;2023-08-06T02:57:49;4.77;;;4.10;;
5285;SDS011;2665;53.112;7.358;2023-08-06T03:00:15;5.70;;;4.60;;
5285;SDS011;2665;53.112;7.358;2023-08-06T03:02:41;5.50;;;4.03;;
5285;SDS011;2665;53.112;7.358;2023-08-06T03:05:07;5.90;;;3.73;;
5285;SDS011;2665;53.112;7.358;2023-08-06T03:07:33;6.60;;;4.10;;
5285;SDS011;2665;53.112;7.358;2023-08-06T03:10:01;7.83;;;4.13;;
5285;SDS011;2665;53.112;7.358;2023-08-06T03:12:27;6.60;;;4.93;;
5285;SDS011;2665;53.112;7.358;2023-08-06T03:14:53;6.00;;;3.83;;
5285;SDS011;2665;53.112;7.358;2023-08-06T03:17:19;5.33;;;3.57;;
5285;SDS011;2665;53.112;7.358;2023-08-06T03:19:45;5.77;;;4.10;;
5285;SDS011;2665;53.112;7.358;2023-08-06T03:22:11;7.63;;;4.43;;
5285;SDS011;2665;53.112;7.358;2023-08-06T03:24:37;4.80;;;4.10;;
5285;SDS011;2665;53.112;7.358;2023-08-06T03:27:03;6.90;;;4.13;;
5285;SDS011;2665;53.112;7.358;2023-08-06T03:29:29;8.57;;;4.10;;
5285;SDS011;2665;53.112;7.358;2023-08-06T03:31:55;6.40;;;4.53;;
5285;SDS011;2665;53.112;7.358;2023-08-06T03:34:21;6.27;;;4.27;;
5285;SDS011;2665;53.112;7.358;2023-08-06T03:36:47;5.17;;;3.83;;
5285;SDS011;2665;53.112;7.358;2023-08-06T03:39:14;5.90;;;4.40;;
5285;SDS011;2665;53.112;7.358;2023-08-06T03:41:40;12.43;;;3.50;;
5285;SDS011;2665;53.112;7.358;2023-08-06T03:44:06;6.70;;;3.70;;
5285;SDS011;2665;53.112;7.358;2023-08-06T03:46:32;5.77;;;4.30;;
5285;SDS011;2665;53.112;7.358;2023-08-06T03:48:59;5.83;;;3.63;;
5285;SDS011;2665;53.112;7.358;2023-08-06T03:51:25;5.97;;;3.83;;
5285;SDS011;2665;53.112;7.358;2023-08-06T03:53:51;5.37;;;3.80;;
5285;SDS011;2665;53.112;7.358;2023-08-06T03:56:17;4.00;;;3.40;;
5285;SDS011;2665;53.112;7.358;2023-08-06T03:58:43;5.83;;;4.13;;
5285;SDS011;2665;53.112;7.358;2023-08-06T04:01:09;5.90;;;4.53;;
5285;SDS011;2665;53.112;7.358;2023-08-06T04:03:35;4.57;;;3.63;;
5285;SDS011;2665;53.112;7.358;2023-08-06T04:06:02;4.70;;;3.67;;
5285;SDS011;2665;53.112;7.358;2023-08-06T04:08:29;5.00;;;3.20;;
5285;SDS011;2665;53.112;7.358;2023-08-06T04:10:55;6.50;;;5.00;;
5285;SDS011;2665;53.112;7.358;2023-08-06T04:13:21;6.77;;;4.70;;
5285;SDS011;2665;53.112;7.358;2023-08-06T04:15:47;5.37;;;4.30;;
5285;SDS011;2665;53.112;7.358;2023-08-06T04:18:13;5.30;;;4.00;;
5285;SDS011;2665;53.112;7.358;2023-08-06T04:20:46;6.40;;;4.47;;
5285;SDS011;2665;53.112;7.358;2023-08-06T04:23:14;6.90;;;4.37;;
5285;SDS011;2665;53.112;7.358;2023-08-06T04:25:40;6.13;;;4.27;;
5285;SDS011;2665;53.112;7.358;2023-08-06T04:28:06;8.10;;;5.17;;
5285;SDS011;2665;53.112;7.358;2023-08-06T04:30:33;8.13;;;6.33;;
5285;SDS011;2665;53.112;7.358;2023-08-06T04:32:59;6.07;;;3.50;;
5285;SDS011;2665;53.112;7.358;2023-08-06T04:35:25;6.57;;;4.57;;
5285;SDS011;2665;53.112;7.358;2023-08-06T04:37:51;11.47;;;5.17;;
5285;SDS011;2665;53.112;7.358;2023-08-06T04:40:17;8.93;;;4.87;;
5285;SDS011;2665;53.112;7.358;2023-08-06T04:42:43;7.33;;;4.90;;
5285;SDS011;2665;53.112;7.358;2023-08-06T04:45:09;9.80;;;4.70;;
5285;SDS011;2665;53.112;7.358;2023-08-06T04:47:35;13.27;;;5.57;;
5285;SDS011;2665;53.112;7.358;2023-08-06T04:50:01;8.30;;;5.57;;
5285;SDS011;2665;53.112;7.358;2023-08-06T04:52:27;6.90;;;5.30;;
5285;SDS011;2665;53.112;7.358;2023-08-06T04:54:54;6.77;;;5.00;;
5285;SDS011;2665;53.112;7.358;2023-08-06T04:57:20;7.83;;;5.27;;
5285;SDS011;2665;53.112;7.358;2023-08-06T04:59:46;6.83;;;4.60;;
5285;SDS011;2665;53.112;7.358;2023-08-06T05:02:12;4.80;;;4.30;;
5285;SDS011;2665;53.112;7.358;2023-08-06T05:04:38;7.00;;;5.57;;
5285;SDS011;2665;53.112;7.358;2023-08-06T05:07:07;7.13;;;4.40;;
5285;SDS011;2665;53.112;7.358;2023-08-06T05:09:33;8.10;;;4.63;;
5285;SDS011;2665;53.112;7.358;2023-08-06T05:12:00;6.43;;;4.83;;
5285;SDS011;2665;53.112;7.358;2023-08-06T05:14:27;7.03;;;4.90;;
5285;SDS011;2665;53.112;7.358;2023-08-06T05:16:53;6.10;;;4.40;;
5285;SDS011;2665;53.112;7.358;2023-08-06T05:19:19;6.80;;;4.70;;
5285;SDS011;2665;53.112;7.358;2023-08-06T05:21:45;4.77;;;4.17;;
5285;SDS011;2665;53.112;7.358;2023-08-06T05:24:11;5.47;;;4.57;;
5285;SDS011;2665;53.112;7.358;2023-08-06T05:26:37;7.43;;;4.87;;
5285;SDS011;2665;53.112;7.358;2023-08-06T05:29:03;6.60;;;4.60;;
5285;SDS011;2665;53.112;7.358;2023-08-06T05:31:29;6.50;;;4.90;;
5285;SDS011;2665;53.112;7.358;2023-08-06T05:33:55;7.03;;;5.10;;
5285;SDS011;2665;53.112;7.358;2023-08-06T05:36:21;7.57;;;5.97;;
5285;SDS011;2665;53.112;7.358;2023-08-06T05:38:48;7.80;;;5.13;;
5285;SDS011;2665;53.112;7.358;2023-08-06T05:41:14;10.53;;;6.00;;
5285;SDS011;2665;53.112;7.358;2023-08-06T05:43:40;12.60;;;6.23;;
5285;SDS011;2665;53.112;7.358;2023-08-06T05:46:06;9.17;;;6.13;;
5285;SDS011;2665;53.112;7.358;2023-08-06T05:48:32;8.40;;;5.87;;
5285;SDS011;2665;53.112;7.358;2023-08-06T05:50:58;10.90;;;6.83;;
5285;SDS011;2665;53.112;7.358;2023-08-06T05:53:24;15.77;;;6.57;;
5285;SDS011;2665;53.112;7.358;2023-08-06T05:55:50;14.63;;;7.83;;
5285;SDS011;2665;53.112;7.358;2023-08-06T05:58:16;10.97;;;7.50;;
5285;SDS011;2665;53.112;7.358;2023-08-06T06:00:42;11.07;;;7.70;;
5285;SDS011;2665;53.112;7.358;2023-08-06T06:03:08;10.67;;;7.67;;
5285;SDS011;2665;53.112;7.358;2023-08-06T06:05:37;10.00;;;7.70;;
5285;SDS011;2665;53.112;7.358;2023-08-06T06:08:04;11.90;;;8.10;;
5285;SDS011;2665;53.112;7.358;2023-08-06T06:10:30;11.47;;;8.60;;
5285;SDS011;2665;53.112;7.358;2023-08-06T06:12:56;9.40;;;7.10;;
5285;SDS011;2665;53.112;7.358;2023-08-06T06:15:22;7.80;;;6.13;;
5285;SDS011;2665;53.112;7.358;2023-08-06T06:17:48;8.80;;;6.60;;
5285;SDS011;2665;53.112;7.358;2023-08-06T06:20:14;11.07;;;6.90;;
5285;SDS011;2665;53.112;7.358;2023-08-06T06:22:40;7.63;;;4.97;;
5285;SDS011;2665;53.112;7.358;2023-08-06T06:25:06;9.07;;;6.37;;
5285;SDS011;2665;53.112;7.358;2023-08-06T06:27:32;9.30;;;6.10;;
5285;SDS011;2665;53.112;7.358;2023-08-06T06:29:58;8.07;;;6.33;;
5285;SDS011;2665;53.112;7.358;2023-08-06T06:32:25;8.20;;;5.77;;
5285;SDS011;2665;53.112;7.358;2023-08-06T06:34:51;7.80;;;6.00;;
5285;SDS011;2665;53.112;7.358;2023-08-06T06:37:17;7.27;;;5.47;;
5285;SDS011;2665;53.112;7.358;2023-08-06T06:39:43;7.77;;;5.20;;
5285;SDS011;2665;53.112;7.358;2023-08-06T06:42:09;7.53;;;6.27;;
5285;SDS011;2665;53.112;7.358;2023-08-06T06:44:35;6.83;;;5.50;;
5285;SDS011;2665;53.112;7.358;2023-08-06T06:47:01;7.83;;;4.90;;
5285;SDS011;2665;53.112;7.358;2023-08-06T06:49:28;5.30;;;4.60;;
5285;SDS011;2665;53.112;7.358;2023-08-06T06:51:54;7.30;;;5.37;;
5285;SDS011;2665;53.112;7.358;2023-08-06T06:54:20;5.87;;;4.87;;
5285;SDS011;2665;53.112;7.358;2023-08-06T06:56:46;6.40;;;5.43;;
5285;SDS011;2665;53.112;7.358;2023-08-06T06:59:12;5.43;;;4.57;;
5285;SDS011;2665;53.112;7.358;2023-08-06T07:01:38;6.70;;;4.90;;
5285;SDS011;2665;53.112;7.358;2023-08-06T07:04:04;5.37;;;4.30;;
5285;SDS011;2665;53.112;7.358;2023-08-06T07:06:30;5.93;;;4.80;;
5285;SDS011;2665;53.112;7.358;2023-08-06T07:08:57;5.67;;;4.77;;
5285;SDS011;2665;53.112;7.358;2023-08-06T07:11:23;9.20;;;6.20;;
5285;SDS011;2665;53.112;7.358;2023-08-06T07:13:58;7.40;;;5.77;;
5285;SDS011;2665;53.112;7.358;2023-08-06T07:16:24;7.03;;;6.17;;
5285;SDS011;2665;53.112;7.358;2023-08-06T07:18:51;9.40;;;5.57;;
5285;SDS011;2665;53.112;7.358;2023-08-06T07:21:18;6.00;;;4.33;;
5285;SDS011;2665;53.112;7.358;2023-08-06T07:23:44;5.20;;;4.23;;
5285;SDS011;2665;53.112;7.358;2023-08-06T07:26:10;6.50;;;5.50;;
5285;SDS011;2665;53.112;7.358;2023-08-06T07:28:36;5.20;;;4.10;;
5285;SDS011;2665;53.112;7.358;2023-08-06T07:31:02;4.50;;;4.00;;
5285;SDS011;2665;53.112;7.358;2023-08-06T07:33:29;6.47;;;4.37;;
5285;SDS011;2665;53.112;7.358;2023-08-06T07:35:55;5.80;;;3.63;;
5285;SDS011;2665;53.112;7.358;2023-08-06T07:38:21;4.90;;;3.87;;
5285;SDS011;2665;53.112;7.358;2023-08-06T07:40:47;4.33;;;3.67;;
5285;SDS011;2665;53.112;7.358;2023-08-06T07:43:13;4.50;;;3.83;;
5285;SDS011;2665;53.112;7.358;2023-08-06T07:45:39;4.77;;;4.10;;
5285;SDS011;2665;53.112;7.358;2023-08-06T07:48:05;3.67;;;2.90;;
5285;SDS011;2665;53.112;7.358;2023-08-06T07:50:31;4.13;;;3.37;;
5285;SDS011;2665;53.112;7.358;2023-08-06T07:52:57;6.30;;;3.77;;
5285;SDS011;2665;53.112;7.358;2023-08-06T07:55:23;5.70;;;5.10;;
5285;SDS011;2665;53.112;7.358;2023-08-06T07:57:49;5.90;;;4.10;;
5285;SDS011;2665;53.112;7.358;2023-08-06T08:00:15;5.77;;;3.60;;
5285;SDS011;2665;53.112;7.358;2023-08-06T08:02:41;5.70;;;4.60;;
5285;SDS011;2665;53.112;7.358;2023-08-06T08:05:07;6.10;;;4.43;;
5285;SDS011;2665;53.112;7.358;2023-08-06T08:07:34;4.60;;;3.93;;
5285;SDS011;2665;53.112;7.358;2023-08-06T08:10:00;4.90;;;4.03;;
5285;SDS011;2665;53.112;7.358;2023-08-06T08:12:26;5.40;;;4.90;;
5285;SDS011;2665;53.112;7.358;2023-08-06T08:14:52;4.70;;;4.10;;
5285;SDS011;2665;53.112;7.358;2023-08-06T08:17:18;4.33;;;3.90;;
5285;SDS011;2665;53.112;7.358;2023-08-06T08:19:44;5.03;;;4.23;;
5285;SDS011;2665;53.112;7.358;2023-08-06T08:22:10;4.93;;;3.30;;
5285;SDS011;2665;53.112;7.358;2023-08-06T08:24:37;4.77;;;3.80;;
5285;SDS011;2665;53.112;7.358;2023-08-06T08:27:03;4.40;;;3.40;;
5285;SDS011;2665;53.112;7.358;2023-08-06T08:29:29;5.80;;;3.90;;
5285;SDS011;2665;53.112;7.358;2023-08-06T08:31:55;3.77;;;3.27;;
5285;SDS011;2665;53.112;7.358;2023-08-06T08:34:21;3.80;;;2.90;;
5285;SDS011;2665;53.112;7.358;2023-08-06T08:36:47;4.07;;;3.27;;
5285;SDS011;2665;53.112;7.358;2023-08-06T08:39:14;6.30;;;3.07;;
5285;SDS011;2665;53.112;7.358;2023-08-06T08:41:40;5.30;;;4.00;;
5285;SDS011;2665;53.112;7.358;2023-08-06T08:44:08;4.47;;;3.37;;
5285;SDS011;2665;53.112;7.358;2023-08-06T08:46:38;4.00;;;3.60;;
5285;SDS011;2665;53.112;7.358;2023-08-06T08:49:06;4.33;;;3.43;;
5285;SDS011;2665;53.112;7.358;2023-08-06T08:51:32;3.47;;;3.00;;
5285;SDS011;2665;53.112;7.358;2023-08-06T08:53:59;4.00;;;3.10;;
5285;SDS011;2665;53.112;7.358;2023-08-06T08:56:29;3.80;;;3.40;;
5285;SDS011;2665;53.112;7.358;2023-08-06T08:58:54;4.33;;;3.63;;
5285;SDS011;2665;53.112;7.358;2023-08-06T09:01:21;4.10;;;3.03;;
5285;SDS011;2665;53.112;7.358;2023-08-06T09:03:47;3.30;;;2.63;;
5285;SDS011;2665;53.112;7.358;2023-08-06T09:06:13;3.87;;;2.30;;
5285;SDS011;2665;53.112;7.358;2023-08-06T09:08:47;4.13;;;2.33;;
5285;SDS011;2665;53.112;7.358;2023-08-06T09:11:20;7.33;;;3.00;;
5285;SDS011;2665;53.112;7.358;2023-08-06T09:13:46;3.20;;;2.07;;
5285;SDS011;2665;53.112;7.358;2023-08-06T09:16:12;3.30;;;2.50;;
5285;SDS011;2665;53.112;7.358;2023-08-06T09:18:38;3.20;;;2.40;;
5285;SDS011;2665;53.112;7.358;2023-08-06T09:21:04;3.60;;;2.00;;
5285;SDS011;2665;53.112;7.358;2023-08-06T09:23:31;4.47;;;2.80;;
5285;SDS011;2665;53.112;7.358;2023-08-06T09:25:58;3.70;;;2.20;;
5285;SDS011;2665;53.112;7.358;2023-08-06T09:28:25;2.87;;;1.83;;
5285;SDS011;2665;53.112;7.358;2023-08-06T09:31:03;2.90;;;2.10;;
5285;SDS011;2665;53.112;7.358;2023-08-06T09:33:29;3.13;;;2.17;;
5285;SDS011;2665;53.112;7.358;2023-08-06T09:35:54;3.00;;;1.90;;
5285;SDS011;2665;53.112;7.358;2023-08-06T09:38:20;2.80;;;1.70;;
5285;SDS011;2665;53.112;7.358;2023-08-06T09:40:46;6.00;;;1.90;;
5285;SDS011;2665;53.112;7.358;2023-08-06T09:43:12;3.53;;;1.80;;
5285;SDS011;2665;53.112;7.358;2023-08-06T09:45:39;3.23;;;2.13;;
5285;SDS011;2665;53.112;7.358;2023-08-06T09:48:05;3.70;;;2.00;;
5285;SDS011;2665;53.112;7.358;2023-08-06T09:50:32;2.70;;;1.63;;
5285;SDS011;2665;53.112;7.358;2023-08-06T09:53:01;3.70;;;1.93;;
5285;SDS011;2665;53.112;7.358;2023-08-06T09:55:28;3.23;;;2.37;;
5285;SDS011;2665;53.112;7.358;2023-08-06T09:57:54;3.63;;;2.00;;
5285;SDS011;2665;53.112;7.358;2023-08-06T10:00:20;3.20;;;2.03;;
5285;SDS011;2665;53.112;7.358;2023-08-06T10:02:47;2.90;;;2.00;;
5285;SDS011;2665;53.112;7.358;2023-08-06T10:05:13;4.47;;;1.63;;
5285;SDS011;2665;53.112;7.358;2023-08-06T10:07:40;4.03;;;1.83;;
5285;SDS011;2665;53.112;7.358;2023-08-06T10:10:07;3.50;;;2.17;;
5285;SDS011;2665;53.112;7.358;2023-08-06T10:12:34;3.07;;;1.60;;
5285;SDS011;2665;53.112;7.358;2023-08-06T10:15:06;2.87;;;1.60;;
5285;SDS011;2665;53.112;7.358;2023-08-06T10:17:35;2.53;;;1.30;;
5285;SDS011;2665;53.112;7.358;2023-08-06T10:20:04;2.43;;;1.20;;
5285;SDS011;2665;53.112;7.358;2023-08-06T10:22:32;2.50;;;1.40;;
5285;SDS011;2665;53.112;7.358;2023-08-06T10:24:58;2.53;;;1.47;;
5285;SDS011;2665;53.112;7.358;2023-08-06T10:27:34;3.73;;;1.53;;
5285;SDS011;2665;53.112;7.358;2023-08-06T10:30:24;2.20;;;1.20;;
5285;SDS011;2665;53.112;7.358;2023-08-06T10:33:01;2.20;;;1.00;;
5285;SDS011;2665;53.112;7.358;2023-08-06T10:35:28;2.83;;;1.40;;
5285;SDS011;2665;53.112;7.358;2023-08-06T10:38:11;2.47;;;1.10;;
5285;SDS011;2665;53.112;7.358;2023-08-06T10:40:39;2.60;;;1.27;;
5285;SDS011;2665;53.112;7.358;2023-08-06T10:43:26;2.30;;;1.00;;
5285;SDS011;2665;53.112;7.358;2023-08-06T10:45:58;2.53;;;1.00;;
5285;SDS011;2665;53.112;7.358;2023-08-06T10:51:01;2.33;;;1.00;;
5285;SDS011;2665;53.112;7.358;2023-08-06T10:53:28;2.20;;;1.07;;
5285;SDS011;2665;53.112;7.358;2023-08-06T10:55:53;5.10;;;0.90;;
5285;SDS011;2665;53.112;7.358;2023-08-06T10:58:19;2.33;;;1.20;;
5285;SDS011;2665;53.112;7.358;2023-08-06T11:00:45;2.10;;;1.00;;
5285;SDS011;2665;53.112;7.358;2023-08-06T11:03:11;2.10;;;0.90;;
5285;SDS011;2665;53.112;7.358;2023-08-06T11:05:37;3.13;;;1.20;;
5285;SDS011;2665;53.112;7.358;2023-08-06T11:08:02;2.03;;;0.80;;
5285;SDS011;2665;53.112;7.358;2023-08-06T11:10:28;3.07;;;1.10;;
5285;SDS011;2665;53.112;7.358;2023-08-06T11:12:54;2.10;;;0.83;;
5285;SDS011;2665;53.112;7.358;2023-08-06T11:15:20;2.20;;;1.00;;
5285;SDS011;2665;53.112;7.358;2023-08-06T11:17:46;2.40;;;0.97;;
5285;SDS011;2665;53.112;7.358;2023-08-06T11:20:12;2.30;;;1.07;;
5285;SDS011;2665;53.112;7.358;2023-08-06T11:22:38;2.43;;;1.13;;
5285;SDS011;2665;53.112;7.358;2023-08-06T11:25:05;3.80;;;1.10;;
5285;SDS011;2665;53.112;7.358;2023-08-06T11:27:31;2.20;;;1.10;;
5285;SDS011;2665;53.112;7.358;2023-08-06T11:29:57;2.20;;;1.07;;
5285;SDS011;2665;53.112;7.358;2023-08-06T11:32:23;2.17;;;1.03;;
5285;SDS011;2665;53.112;7.358;2023-08-06T11:34:49;2.30;;;1.13;;
5285;SDS011;2665;53.112;7.358;2023-08-06T11:37:16;2.30;;;1.37;;
5285;SDS011;2665;53.112;7.358;2023-08-06T11:39:45;2.73;;;1.03;;
5285;SDS011;2665;53.112;7.358;2023-08-06T11:42:13;2.47;;;0.90;;
5285;SDS011;2665;53.112;7.358;2023-08-06T11:44:40;2.13;;;0.97;;
5285;SDS011;2665;53.112;7.358;2023-08-06T11:47:13;2.43;;;1.03;;
5285;SDS011;2665;53.112;7.358;2023-08-06T11:49:46;2.37;;;1.23;;
5285;SDS011;2665;53.112;7.358;2023-08-06T11:54:44;3.60;;;1.13;;
5285;SDS011;2665;53.112;7.358;2023-08-06T11:57:24;2.27;;;1.10;;
5285;SDS011;2665;53.112;7.358;2023-08-06T11:59:49;2.10;;;0.87;;
5285;SDS011;2665;53.112;7.358;2023-08-06T12:02:15;2.83;;;1.10;;
5285;SDS011;2665;53.112;7.358;2023-08-06T12:05:00;2.50;;;1.23;;
5285;SDS011;2665;53.112;7.358;2023-08-06T12:07:28;2.60;;;1.20;;
5285;SDS011;2665;53.112;7.358;2023-08-06T12:09:57;2.20;;;1.00;;
5285;SDS011;2665;53.112;7.358;2023-08-06T12:12:23;2.20;;;1.00;;
5285;SDS011;2665;53.112;7.358;2023-08-06T12:14:49;2.20;;;0.90;;
5285;SDS011;2665;53.112;7.358;2023-08-06T12:17:15;2.50;;;0.90;;
5285;SDS011;2665;53.112;7.358;2023-08-06T12:19:41;2.20;;;0.90;;
5285;SDS011;2665;53.112;7.358;2023-08-06T12:22:06;2.70;;;0.83;;
5285;SDS011;2665;53.112;7.358;2023-08-06T12:24:32;2.60;;;1.00;;
5285;SDS011;2665;53.112;7.358;2023-08-06T12:26:58;1.90;;;0.90;;
5285;SDS011;2665;53.112;7.358;2023-08-06T12:29:24;2.83;;;1.00;;
5285;SDS011;2665;53.112;7.358;2023-08-06T12:31:50;1.83;;;0.90;;
5285;SDS011;2665;53.112;7.358;2023-08-06T12:34:16;2.97;;;1.20;;
5285;SDS011;2665;53.112;7.358;2023-08-06T12:36:41;1.90;;;0.90;;
5285;SDS011;2665;53.112;7.358;2023-08-06T12:39:07;2.10;;;1.20;;
5285;SDS011;2665;53.112;7.358;2023-08-06T12:41:33;2.10;;;1.27;;
5285;SDS011;2665;53.112;7.358;2023-08-06T12:43:58;2.00;;;0.90;;
5285;SDS011;2665;53.112;7.358;2023-08-06T12:46:24;1.90;;;1.00;;
5285;SDS011;2665;53.112;7.358;2023-08-06T12:48:49;1.67;;;0.90;;
5285;SDS011;2665;53.112;7.358;2023-08-06T12:51:15;1.80;;;0.90;;
5285;SDS011;2665;53.112;7.358;2023-08-06T12:53:41;4.03;;;1.33;;
5285;SDS011;2665;53.112;7.358;2023-08-06T12:56:07;2.27;;;1.20;;
5285;SDS011;2665;53.112;7.358;2023-08-06T12:58:32;2.70;;;1.13;;
5285;SDS011;2665;53.112;7.358;2023-08-06T13:00:58;2.30;;;1.10;;
5285;SDS011;2665;53.112;7.358;2023-08-06T13:03:24;1.70;;;0.70;;
5285;SDS011;2665;53.112;7.358;2023-08-06T13:05:49;2.20;;;1.10;;
5285;SDS011;2665;53.112;7.358;2023-08-06T13:08:17;2.17;;;1.10;;
5285;SDS011;2665;53.112;7.358;2023-08-06T13:10:42;2.23;;;1.00;;
5285;SDS011;2665;53.112;7.358;2023-08-06T13:13:08;1.90;;;0.97;;
5285;SDS011;2665;53.112;7.358;2023-08-06T13:15:35;2.00;;;0.90;;
5285;SDS011;2665;53.112;7.358;2023-08-06T13:18:01;1.80;;;0.87;;
5285;SDS011;2665;53.112;7.358;2023-08-06T13:20:26;3.30;;;1.20;;
5285;SDS011;2665;53.112;7.358;2023-08-06T13:22:55;3.90;;;1.30;;
5285;SDS011;2665;53.112;7.358;2023-08-06T13:25:20;2.10;;;1.10;;
5285;SDS011;2665;53.112;7.358;2023-08-06T13:27:46;2.50;;;1.23;;
5285;SDS011;2665;53.112;7.358;2023-08-06T13:30:12;2.27;;;1.20;;
5285;SDS011;2665;53.112;7.358;2023-08-06T13:32:38;2.00;;;1.00;;
5285;SDS011;2665;53.112;7.358;2023-08-06T13:35:04;2.20;;;1.20;;
5285;SDS011;2665;53.112;7.358;2023-08-06T13:37:30;2.33;;;0.90;;
5285;SDS011;2665;53.112;7.358;2023-08-06T13:39:55;2.30;;;0.90;;
5285;SDS011;2665;53.112;7.358;2023-08-06T13:42:22;2.37;;;0.97;;
5285;SDS011;2665;53.112;7.358;2023-08-06T13:44:48;3.00;;;1.20;;
5285;SDS011;2665;53.112;7.358;2023-08-06T13:47:13;3.40;;;0.90;;
5285;SDS011;2665;53.112;7.358;2023-08-06T13:49:39;2.20;;;1.13;;
5285;SDS011;2665;53.112;7.358;2023-08-06T13:52:05;2.83;;;1.00;;
5285;SDS011;2665;53.112;7.358;2023-08-06T13:54:30;2.37;;;0.87;;
5285;SDS011;2665;53.112;7.358;2023-08-06T13:56:56;2.10;;;1.30;;
5285;SDS011;2665;53.112;7.358;2023-08-06T13:59:21;1.83;;;0.87;;
5285;SDS011;2665;53.112;7.358;2023-08-06T14:01:49;1.70;;;0.80;;
5285;SDS011;2665;53.112;7.358;2023-08-06T14:04:15;2.90;;;0.80;;
5285;SDS011;2665;53.112;7.358;2023-08-06T14:06:41;1.93;;;0.93;;
5285;SDS011;2665;53.112;7.358;2023-08-06T14:09:06;2.07;;;1.00;;
5285;SDS011;2665;53.112;7.358;2023-08-06T14:11:33;2.00;;;1.07;;
5285;SDS011;2665;53.112;7.358;2023-08-06T14:13:59;3.10;;;1.10;;
5285;SDS011;2665;53.112;7.358;2023-08-06T14:16:25;1.53;;;0.80;;
5285;SDS011;2665;53.112;7.358;2023-08-06T14:18:50;1.80;;;0.87;;
5285;SDS011;2665;53.112;7.358;2023-08-06T14:21:16;2.47;;;0.97;;
5285;SDS011;2665;53.112;7.358;2023-08-06T14:23:42;1.73;;;0.93;;
5285;SDS011;2665;53.112;7.358;2023-08-06T14:26:07;1.87;;;0.90;;
5285;SDS011;2665;53.112;7.358;2023-08-06T14:28:35;1.87;;;1.00;;
5285;SDS011;2665;53.112;7.358;2023-08-06T14:31:01;2.00;;;1.13;;
5285;SDS011;2665;53.112;7.358;2023-08-06T14:33:27;2.43;;;1.13;;
5285;SDS011;2665;53.112;7.358;2023-08-06T14:35:52;2.47;;;0.80;;
5285;SDS011;2665;53.112;7.358;2023-08-06T14:38:18;2.03;;;0.83;;
5285;SDS011;2665;53.112;7.358;2023-08-06T14:40:44;2.13;;;0.97;;
5285;SDS011;2665;53.112;7.358;2023-08-06T14:43:09;2.10;;;1.33;;
5285;SDS011;2665;53.112;7.358;2023-08-06T14:45:38;1.60;;;0.80;;
5285;SDS011;2665;53.112;7.358;2023-08-06T14:48:04;2.57;;;1.20;;
5285;SDS011;2665;53.112;7.358;2023-08-06T14:50:30;3.77;;;0.93;;
5285;SDS011;2665;53.112;7.358;2023-08-06T14:52:56;2.10;;;1.00;;
5285;SDS011;2665;53.112;7.358;2023-08-06T14:55:25;2.53;;;1.00;;
5285;SDS011;2665;53.112;7.358;2023-08-06T14:57:51;2.27;;;1.43;;
5285;SDS011;2665;53.112;7.358;2023-08-06T15:00:18;2.73;;;1.13;;
5285;SDS011;2665;53.112;7.358;2023-08-06T15:02:46;1.77;;;0.87;;
5285;SDS011;2665;53.112;7.358;2023-08-06T15:05:12;4.20;;;1.30;;
5285;SDS011;2665;53.112;7.358;2023-08-06T15:07:37;2.13;;;0.90;;
5285;SDS011;2665;53.112;7.358;2023-08-06T15:10:04;2.30;;;1.20;;
5285;SDS011;2665;53.112;7.358;2023-08-06T15:12:30;2.97;;;1.00;;
5285;SDS011;2665;53.112;7.358;2023-08-06T15:14:57;2.57;;;1.10;;
5285;SDS011;2665;53.112;7.358;2023-08-06T15:17:23;1.97;;;0.90;;
5285;SDS011;2665;53.112;7.358;2023-08-06T15:19:50;3.90;;;0.90;;